Time,TemperatureF,DewpointF,PressureIn,WindDirection,WindDirectionDegrees,WindSpeedMPH,WindSpeedGustMPH,Humidity,HourlyPrecipIn,Conditions,Clouds,dailyrainin,SoftwareType,DateUTC
2013-01-19 00:53:00,20.0,19.0,-100.00,North,5,4.0,7.0,98,-99.99,,,-99.99,,2013-01-19 05:53:00,
2013-01-19 01:02:00,20.0,20.0,-100.00,North,355,4.0,8.0,99,-99.99,,,-99.99,,2013-01-19 06:02:00,
2013-01-19 01:12:00,20.0,20.0,-100.00,North,355,4.0,8.0,99,-99.99,,,-99.99,,2013-01-19 06:12:00,
2013-01-19 01:22:00,20.0,20.0,-100.00,North,10,4.0,7.0,99,-99.99,,,-99.99,,2013-01-19 06:22:00,
2013-01-19 01:32:00,20.0,20.0,-100.00,North,10,4.0,7.0,99,-99.99,,,-99.99,,2013-01-19 06:32:00,
2013-01-19 01:43:00,20.0,20.0,-100.00,North,10,4.0,7.0,99,-99.99,,,-99.99,,2013-01-19 06:43:00,
2013-01-19 01:52:00,20.0,20.0,-100.00,NNW,345,5.0,8.0,99,-99.99,,,-99.99,,2013-01-19 06:52:00,
2013-01-19 02:02:00,19.0,-99.9,-100.00,NW,320,3.0,6.0,-999,-99.99,,,-99.99,,2013-01-19 07:02:00,
2013-01-19 02:12:00,19.0,-99.9,-100.00,NW,320,3.0,6.0,-999,-99.99,,,-99.99,,2013-01-19 07:12:00,
2013-01-19 02:23:00,19.0,-99.9,-100.00,NNW,335,4.0,6.0,-999,-99.99,,,-99.99,,2013-01-19 07:23:00,
2013-01-19 02:33:00,20.0,-99.9,-100.00,North,350,4.0,5.0,-999,-99.99,,,-99.99,,2013-01-19 07:33:00,
2013-01-19 02:43:00,20.0,-99.9,-100.00,North,350,4.0,5.0,-999,-99.99,,,-99.99,,2013-01-19 07:43:00,
2013-01-19 02:53:00,20.0,-99.9,-100.00,NNW,335,5.0,8.0,-999,-99.99,,,-99.99,,2013-01-19 07:53:00,
2013-01-19 03:03:00,20.0,-99.9,-100.00,WNW,285,2.0,5.0,-999,-99.99,,,-99.99,,2013-01-19 08:03:00,
2013-01-19 03:12:00,20.0,-99.9,-100.00,WNW,285,2.0,5.0,-999,-99.99,,,-99.99,,2013-01-19 08:12:00,
2013-01-19 03:23:00,20.0,-99.9,-100.00,NNW,335,2.0,4.0,-999,-99.99,,,-99.99,,2013-01-19 08:23:00,
2013-01-19 03:33:00,20.0,-99.9,-100.00,WSW,245,2.0,4.0,-999,-99.99,,,-99.99,,2013-01-19 08:33:00,
2013-01-19 03:43:00,20.0,-99.9,-100.00,WSW,245,2.0,4.0,-999,-99.99,,,-99.99,,2013-01-19 08:43:00,
2013-01-19 03:52:00,20.0,19.0,-100.00,WSW,245,4.0,6.0,99,-99.99,,,-99.99,,2013-01-19 08:52:00,
2013-01-19 04:02:00,20.0,19.0,-100.00,WNW,300,4.0,6.0,99,-99.99,,,-99.99,,2013-01-19 09:02:00,
2013-01-19 04:12:00,20.0,19.0,-100.00,WNW,300,4.0,6.0,99,-99.99,,,-99.99,,2013-01-19 09:12:00,
2013-01-19 04:23:00,20.0,20.0,-100.00,WSW,250,4.0,5.0,99,-99.99,,,-99.99,,2013-01-19 09:23:00,
2013-01-19 04:33:00,20.0,20.0,-100.00,NNW,345,3.0,4.0,99,-99.99,,,-99.99,,2013-01-19 09:33:00,
2013-01-19 04:42:00,20.0,20.0,-100.00,NNW,345,3.0,4.0,99,-99.99,,,-99.99,,2013-01-19 09:42:00,
2013-01-19 04:52:00,20.0,19.0,-100.00,WNW,295,4.0,7.0,98,-99.99,,,-99.99,,2013-01-19 09:52:00,
2013-01-19 05:02:00,20.0,19.0,-100.00,WNW,295,5.0,7.0,98,-99.99,,,-99.99,,2013-01-19 10:02:00,
2013-01-19 05:12:00,20.0,19.0,-100.00,WNW,295,5.0,7.0,98,-99.99,,,-99.99,,2013-01-19 10:12:00,
2013-01-19 05:22:00,20.0,19.0,-100.00,NW,305,4.0,6.0,98,-99.99,,,-99.99,,2013-01-19 10:22:00,
2013-01-19 05:32:00,20.0,19.0,-100.00,WNW,295,5.0,7.0,97,-99.99,,,-99.99,,2013-01-19 10:32:00,
2013-01-19 05:42:00,20.0,19.0,-100.00,WNW,295,5.0,7.0,97,-99.99,,,-99.99,,2013-01-19 10:42:00,
2013-01-19 05:52:00,20.0,19.0,-100.00,WSW,250,4.0,7.0,97,-99.99,,,-99.99,,2013-01-19 10:52:00,
2013-01-19 06:03:00,20.0,19.0,-100.00,NW,310,4.0,7.0,97,-99.99,,,-99.99,,2013-01-19 11:03:00,
2013-01-19 06:12:00,20.0,19.0,-100.00,NW,310,4.0,7.0,97,-99.99,,,-99.99,,2013-01-19 11:12:00,
2013-01-19 07:48:00,20.0,19.0,-100.00,NNW,345,4.0,6.0,97,-99.99,,,-99.99,,2013-01-19 12:48:00,
2013-01-19 07:53:00,20.0,19.0,-100.00,North,355,6.0,9.0,96,-99.99,,,-99.99,,2013-01-19 12:53:00,
2013-01-19 08:03:00,21.0,20.0,-100.00,East,80,2.0,5.0,96,-99.99,,,-99.99,,2013-01-19 13:03:00,
2013-01-19 08:12:00,21.0,20.0,-100.00,East,80,2.0,5.0,96,-99.99,,,-99.99,,2013-01-19 13:12:00,
2013-01-19 08:21:00,20.0,20.0,-100.00,ESE,110,3.0,4.0,97,-99.99,,,-99.99,,2013-01-19 13:21:00,
2013-01-19 08:22:00,21.0,20.0,-100.00,NW,305,6.0,9.0,96,-99.99,,,-99.99,,2013-01-19 13:22:00,
2013-01-19 08:33:00,20.0,19.0,-100.00,ENE,60,2.0,4.0,95,-99.99,,,-99.99,,2013-01-19 13:33:00,
2013-01-19 08:42:00,20.0,19.0,-100.00,ENE,60,2.0,4.0,95,-99.99,,,-99.99,,2013-01-19 13:42:00,
2013-01-19 08:53:00,20.0,20.0,-100.00,SE,130,2.0,4.0,96,-99.99,,,-99.99,,2013-01-19 13:53:00,
2013-01-19 09:02:00,20.0,20.0,-100.00,ESE,110,3.0,4.0,97,-99.99,,,-99.99,,2013-01-19 14:02:00,
2013-01-19 09:12:00,20.0,20.0,-100.00,ESE,110,3.0,4.0,97,-99.99,,,-99.99,,2013-01-19 14:12:00,
2013-01-19 09:34:00,20.0,20.0,-100.00,SSE,165,4.0,6.0,97,-99.99,,,-99.99,,2013-01-19 14:34:00,
2013-01-19 09:43:00,20.0,20.0,-100.00,SSE,165,4.0,6.0,97,-99.99,,,-99.99,,2013-01-19 14:43:00,
2013-01-19 09:53:00,21.0,20.0,-100.00,SE,140,3.0,4.0,97,-99.99,,,-99.99,,2013-01-19 14:53:00,
2013-01-19 10:03:00,21.0,20.0,-100.00,SSE,160,4.0,6.0,97,-99.99,,,-99.99,,2013-01-19 15:03:00,
2013-01-19 10:12:00,21.0,20.0,-100.00,SSE,160,4.0,6.0,97,-99.99,,,-99.99,,2013-01-19 15:12:00,
2013-01-19 10:23:00,21.0,20.0,-100.00,SSE,165,5.0,7.0,97,-99.99,,,-99.99,,2013-01-19 15:23:00,
2013-01-19 10:33:00,21.0,20.0,-100.00,SSE,165,4.0,8.0,97,-99.99,,,-99.99,,2013-01-19 15:33:00,
2013-01-19 10:43:00,21.0,20.0,-100.00,SSE,165,4.0,8.0,97,-99.99,,,-99.99,,2013-01-19 15:43:00,
2013-01-19 10:53:00,22.0,21.0,-100.00,East,100,2.0,5.0,97,-99.99,,,-99.99,,2013-01-19 15:53:00,
2013-01-19 11:03:00,22.0,21.0,-100.00,East,100,2.0,5.0,97,-99.99,,,-99.99,,2013-01-19 16:03:00,
2013-01-19 11:23:00,22.0,21.0,-100.00,NE,45,4.0,5.0,96,-99.99,,,-99.99,,2013-01-19 16:23:00,
2013-01-19 11:33:00,22.0,22.0,-100.00,South,180,4.0,6.0,96,-99.99,,,-99.99,,2013-01-19 16:33:00,
2013-01-19 11:43:00,22.0,22.0,-100.00,South,180,4.0,6.0,96,-99.99,,,-99.99,,2013-01-19 16:43:00,
2013-01-19 11:53:00,23.0,22.0,-100.00,South,170,7.0,11.0,97,-99.99,,,-99.99,,2013-01-19 16:53:00,
2013-01-19 12:03:00,23.0,22.0,-100.00,South,185,5.0,10.0,97,-99.99,,,-99.99,,2013-01-19 17:03:00,
2013-01-19 12:19:00,23.0,22.0,-100.00,South,185,5.0,10.0,97,-99.99,,,-99.99,,2013-01-19 17:19:00,
2013-01-19 12:28:00,24.0,23.0,-100.00,South,170,6.0,10.0,98,-99.99,,,-99.99,,2013-01-19 17:28:00,
2013-01-19 12:35:00,24.0,24.0,-100.00,SSE,165,6.0,11.0,97,-99.99,,,-99.99,,2013-01-19 17:35:00,
2013-01-19 12:48:00,24.0,24.0,-100.00,SSE,165,6.0,11.0,97,-99.99,,,-99.99,,2013-01-19 17:48:00,
2013-01-19 12:53:00,25.0,24.0,-100.00,SSE,165,5.0,8.0,97,-99.99,,,-99.99,,2013-01-19 17:53:00,
2013-01-19 13:11:00,25.0,24.0,-100.00,South,180,3.0,7.0,96,-99.99,,,-99.99,,2013-01-19 18:11:00,
2013-01-19 13:20:00,27.0,26.0,-100.00,South,185,4.0,9.0,98,-99.99,,,-99.99,,2013-01-19 18:20:00,
2013-01-19 13:35:00,26.0,26.0,-100.00,SSE,150,4.0,10.0,97,-99.99,,,-99.99,,2013-01-19 18:35:00,
2013-01-19 13:45:00,26.0,26.0,-100.00,SSE,150,4.0,10.0,97,-99.99,,,-99.99,,2013-01-19 18:45:00,
2013-01-19 13:55:00,26.0,26.0,-100.00,SSE,155,8.0,11.0,97,-99.99,,,-99.99,,2013-01-19 18:55:00,
2013-01-19 14:09:00,27.0,26.0,-100.00,South,185,4.0,9.0,98,-99.99,,,-99.99,,2013-01-19 19:09:00,
2013-01-19 14:39:00,28.0,27.0,-100.00,South,190,4.0,5.0,97,-99.99,,,-99.99,,2013-01-19 19:39:00,
2013-01-19 14:46:00,28.0,27.0,-100.00,South,190,4.0,5.0,97,-99.99,,,-99.99,,2013-01-19 19:46:00,
2013-01-19 14:54:00,29.0,28.0,-100.00,SE,130,4.0,11.0,96,-99.99,,,-99.99,,2013-01-19 19:54:00,
2013-01-19 15:10:00,29.0,28.0,-100.00,South,185,5.0,8.0,96,-99.99,,,-99.99,,2013-01-19 20:10:00,
2013-01-19 15:19:00,29.0,28.0,-100.00,South,185,5.0,8.0,96,-99.99,,,-99.99,,2013-01-19 20:19:00,
2013-01-19 15:25:00,29.0,29.0,-100.00,South,170,4.0,8.0,97,-99.99,,,-99.99,,2013-01-19 20:25:00,
2013-01-19 15:38:00,30.0,29.0,-100.00,SE,135,6.0,9.0,97,-99.99,,,-99.99,,2013-01-19 20:38:00,
2013-01-19 15:48:00,30.0,29.0,-100.00,SE,135,6.0,9.0,97,-99.99,,,-99.99,,2013-01-19 20:48:00,
2013-01-19 15:50:00,30.0,30.0,-100.00,NNE,25,4.0,5.0,98,-99.99,,,-99.99,,2013-01-19 20:50:00,
2013-01-19 15:54:00,30.0,29.0,-100.00,SE,135,4.0,9.0,97,-99.99,,,-99.99,,2013-01-19 20:54:00,
2013-01-19 16:06:00,29.0,29.0,-100.00,South,190,3.0,6.0,98,-99.99,,,-99.99,,2013-01-19 21:06:00,
2013-01-19 16:14:00,29.0,29.0,-100.00,South,190,3.0,6.0,98,-99.99,,,-99.99,,2013-01-19 21:14:00,
2013-01-19 16:26:00,30.0,29.0,-100.00,South,170,3.0,4.0,98,-99.99,,,-99.99,,2013-01-19 21:26:00,
2013-01-19 16:44:00,30.0,30.0,-100.00,NNE,25,4.0,5.0,98,-99.99,,,-99.99,,2013-01-19 21:44:00,
2013-01-19 16:56:00,30.0,30.0,-100.00,SE,130,5.0,6.0,98,-99.99,,,-99.99,,2013-01-19 21:56:00,
2013-01-19 17:14:00,30.0,30.0,-100.00,SE,125,5.0,8.0,99,-99.99,,,-99.99,,2013-01-19 22:14:00,
2013-01-19 17:29:00,30.0,-99.9,-100.00,South,180,5.0,8.0,-999,-99.99,,,-99.99,,2013-01-19 22:29:00,
2013-01-19 17:37:00,30.0,-99.9,-100.00,SSE,160,5.0,9.0,-999,-99.99,,,-99.99,,2013-01-19 22:37:00,
2013-01-19 17:50:00,30.0,-99.9,-100.00,SW,235,4.0,6.0,-999,-99.99,,,-99.99,,2013-01-19 22:50:00,
2013-01-19 18:05:00,30.0,-99.9,-100.00,WSW,250,5.0,7.0,-999,-99.99,,,-99.99,,2013-01-19 23:05:00,
2013-01-19 18:16:00,30.0,-99.9,-100.00,SSW,200,4.0,6.0,-999,-99.99,,,-99.99,,2013-01-19 23:16:00,
2013-01-19 18:25:00,31.0,-99.9,-100.00,WSW,250,7.0,11.0,-999,-99.99,,,-99.99,,2013-01-19 23:25:00,
2013-01-19 18:29:00,30.0,-99.9,-100.00,WSW,255,4.0,5.0,-999,-99.99,,,-99.99,,2013-01-19 23:29:00,
2013-01-19 18:35:00,30.0,-99.9,-100.00,SW,235,4.0,6.0,-999,-99.99,,,-99.99,,2013-01-19 23:35:00,
2013-01-19 19:10:00,31.0,-99.9,-100.00,West,260,7.0,16.0,-999,-99.99,,,-99.99,,2013-01-20 00:10:00,
2013-01-19 19:18:00,31.0,-99.9,-100.00,West,260,7.0,16.0,-999,-99.99,,,-99.99,,2013-01-20 00:18:00,
2013-01-19 19:35:00,34.0,32.0,-100.00,West,280,14.0,26.0,93,-99.99,,,-99.99,,2013-01-20 00:35:00,
2013-01-19 19:46:00,34.0,32.0,-100.00,West,280,14.0,26.0,93,-99.99,,,-99.99,,2013-01-20 00:46:00,
2013-01-19 19:53:00,34.0,32.0,-100.00,West,260,7.0,17.0,95,-99.99,,,-99.99,,2013-01-20 00:53:00,
2013-01-19 20:04:00,34.0,33.0,-100.00,West,280,9.0,14.0,95,-99.99,,,-99.99,,2013-01-20 01:04:00,
2013-01-19 20:26:00,34.0,32.0,-100.00,West,280,10.0,17.0,92,-99.99,,,-99.99,,2013-01-20 01:26:00,
2013-01-19 20:37:00,33.0,31.0,-100.00,West,280,11.0,19.0,90,-99.99,,,-99.99,,2013-01-20 01:37:00,
2013-01-19 20:47:00,33.0,31.0,-100.00,West,280,11.0,19.0,90,-99.99,,,-99.99,,2013-01-20 01:47:00,
2013-01-19 20:58:00,32.0,28.0,-100.00,WNW,300,14.0,24.0,87,-99.99,,,-99.99,,2013-01-20 01:58:00,
2013-01-19 21:07:00,32.0,28.0,-100.00,WNW,300,14.0,24.0,87,-99.99,,,-99.99,,2013-01-20 02:07:00,
2013-01-19 21:15:00,32.0,28.0,-100.00,WNW,300,14.0,24.0,87,-99.99,,,-99.99,,2013-01-20 02:15:00,
2013-01-19 21:26:00,32.0,29.0,-100.00,WNW,300,18.0,30.0,88,-99.99,,,-99.99,,2013-01-20 02:26:00,
2013-01-19 21:35:00,29.0,28.0,-100.00,WNW,295,15.0,30.0,94,-99.99,,,-99.99,,2013-01-20 02:35:00,
2013-01-19 21:44:00,29.0,28.0,-100.00,WNW,295,15.0,30.0,94,-99.99,,,-99.99,,2013-01-20 02:44:00,
2013-01-19 21:55:00,28.0,22.0,-100.00,NW,305,23.0,45.0,79,-99.99,,,-99.99,,2013-01-20 02:55:00,
2013-01-19 22:08:00,27.0,21.0,-100.00,WNW,300,14.0,31.0,77,-99.99,,,-99.99,,2013-01-20 03:08:00,
2013-01-19 22:14:00,27.0,21.0,-100.00,WNW,300,14.0,31.0,77,-99.99,,,-99.99,,2013-01-20 03:14:00,
2013-01-19 22:25:00,26.0,17.0,-100.00,WNW,295,26.0,35.0,70,-99.99,,,-99.99,,2013-01-20 03:25:00,
2013-01-19 22:38:00,25.0,17.0,-100.00,WNW,300,23.0,37.0,73,-99.99,,,-99.99,,2013-01-20 03:38:00,
2013-01-19 22:45:00,25.0,17.0,-100.00,WNW,300,23.0,37.0,73,-99.99,,,-99.99,,2013-01-20 03:45:00,
2013-01-19 22:54:00,24.0,18.0,-100.00,NW,315,15.0,32.0,77,-99.99,,,-99.99,,2013-01-20 03:54:00,
2013-01-19 23:05:00,23.0,15.0,-100.00,NW,310,24.0,39.0,71,-99.99,,,-99.99,,2013-01-20 04:05:00,
2013-01-19 23:15:00,23.0,15.0,-100.00,NW,310,24.0,39.0,71,-99.99,,,-99.99,,2013-01-20 04:15:00,
2013-01-19 23:25:00,21.0,12.0,-100.00,NNW,340,17.0,28.0,68,-99.99,,,-99.99,,2013-01-20 04:25:00,
2013-01-19 23:35:00,19.0,9.0,-100.00,NNW,340,21.0,42.0,65,-99.99,,,-99.99,,2013-01-20 04:35:00,
2013-01-19 23:44:00,19.0,9.0,-100.00,NNW,340,21.0,42.0,65,-99.99,,,-99.99,,2013-01-20 04:44:00,
2013-01-19 23:54:00,18.0,8.0,-100.00,NNW,330,16.0,37.0,66,-99.99,,,-99.99,,2013-01-20 04:54:00,